sensor_id;sensor_type;location;lat;lon;timestamp;P1;durP1;ratioP1;P2;durP2;ratioP2
11211;SDS011;5663;50.864;12.096;2023-03-24T00:49:36;6.30;;;3.50;;
11211;SDS011;5663;50.864;12.096;2023-03-24T00:52:11;4.23;;;3.10;;
11211;SDS011;5663;50.864;12.096;2023-03-24T00:54:41;6.40;;;3.53;;
11211;SDS011;5663;50.864;12.096;2023-03-24T00:57:11;4.83;;;3.50;;
11211;SDS011;5663;50.864;12.096;2023-03-24T00:59:39;4.63;;;3.57;;
11211;SDS011;5663;50.864;12.096;2023-03-24T01:02:14;6.37;;;3.53;;
11211;SDS011;5663;50.864;12.096;2023-03-24T01:04:45;3.97;;;3.30;;
11211;SDS011;5663;50.864;12.096;2023-03-24T01:07:13;3.37;;;3.07;;
11211;SDS011;5663;50.864;12.096;2023-03-24T01:09:44;6.80;;;3.23;;
11211;SDS011;5663;50.864;12.096;2023-03-24T01:12:17;5.87;;;3.70;;
11211;SDS011;5663;50.864;12.096;2023-03-24T01:14:46;4.90;;;3.67;;
11211;SDS011;5663;50.864;12.096;2023-03-24T01:17:15;4.37;;;3.47;;
11211;SDS011;5663;50.864;12.096;2023-03-24T01:19:45;5.80;;;3.63;;
11211;SDS011;5663;50.864;12.096;2023-03-24T01:22:14;4.60;;;3.50;;
11211;SDS011;5663;50.864;12.096;2023-03-24T01:28:03;4.83;;;3.20;;
11211;SDS011;5663;50.864;12.096;2023-03-24T01:30:32;4.63;;;2.97;;
11211;SDS011;5663;50.864;12.096;2023-03-24T01:33:01;4.13;;;3.30;;
11211;SDS011;5663;50.864;12.096;2023-03-24T01:35:30;5.37;;;2.90;;
11211;SDS011;5663;50.864;12.096;2023-03-24T01:37:59;4.47;;;3.50;;
11211;SDS011;5663;50.864;12.096;2023-03-24T01:40:28;5.87;;;3.40;;
11211;SDS011;5663;50.864;12.096;2023-03-24T01:42:58;4.47;;;3.20;;
11211;SDS011;5663;50.864;12.096;2023-03-24T01:45:41;4.03;;;3.07;;
11211;SDS011;5663;50.864;12.096;2023-03-24T01:48:12;3.47;;;3.13;;
11211;SDS011;5663;50.864;12.096;2023-03-24T01:50:45;4.10;;;3.23;;
11211;SDS011;5663;50.864;12.096;2023-03-24T01:53:18;4.97;;;2.90;;
11211;SDS011;5663;50.864;12.096;2023-03-24T01:55:47;4.47;;;3.20;;
11211;SDS011;5663;50.864;12.096;2023-03-24T01:58:16;5.93;;;3.60;;
11211;SDS011;5663;50.864;12.096;2023-03-24T02:00:45;4.47;;;2.93;;
11211;SDS011;5663;50.864;12.096;2023-03-24T02:03:15;3.77;;;3.03;;
11211;SDS011;5663;50.864;12.096;2023-03-24T02:05:48;3.10;;;2.80;;
11211;SDS011;5663;50.864;12.096;2023-03-24T02:08:19;4.07;;;3.30;;
11211;SDS011;5663;50.864;12.096;2023-03-24T02:10:52;3.37;;;2.90;;
11211;SDS011;5663;50.864;12.096;2023-03-24T02:13:21;4.87;;;3.10;;
11211;SDS011;5663;50.864;12.096;2023-03-24T02:15:53;7.47;;;3.10;;
11211;SDS011;5663;50.864;12.096;2023-03-24T02:18:31;4.83;;;2.90;;
11211;SDS011;5663;50.864;12.096;2023-03-24T02:27:47;5.57;;;3.20;;
11211;SDS011;5663;50.864;12.096;2023-03-24T02:30:35;4.40;;;2.97;;
11211;SDS011;5663;50.864;12.096;2023-03-24T02:36:39;4.97;;;2.90;;
11211;SDS011;5663;50.864;12.096;2023-03-24T02:39:33;5.20;;;2.70;;
11211;SDS011;5663;50.864;12.096;2023-03-24T02:42:19;3.70;;;3.17;;
11211;SDS011;5663;50.864;12.096;2023-03-24T02:45:00;5.30;;;3.07;;
11211;SDS011;5663;50.864;12.096;2023-03-24T02:47:36;3.53;;;3.03;;
11211;SDS011;5663;50.864;12.096;2023-03-24T05:52:22;5.63;;;3.00;;
11211;SDS011;5663;50.864;12.096;2023-03-24T05:54:49;5.30;;;3.10;;
11211;SDS011;5663;50.864;12.096;2023-03-24T05:57:18;5.37;;;3.30;;
11211;SDS011;5663;50.864;12.096;2023-03-24T05:59:46;3.77;;;3.00;;
11211;SDS011;5663;50.864;12.096;2023-03-24T06:02:13;4.17;;;2.87;;
11211;SDS011;5663;50.864;12.096;2023-03-24T06:04:41;3.10;;;2.73;;
11211;SDS011;5663;50.864;12.096;2023-03-24T06:07:11;3.90;;;3.10;;
11211;SDS011;5663;50.864;12.096;2023-03-24T06:09:40;2.90;;;2.60;;
11211;SDS011;5663;50.864;12.096;2023-03-24T06:12:12;5.40;;;3.20;;
11211;SDS011;5663;50.864;12.096;2023-03-24T06:14:40;4.43;;;3.13;;
11211;SDS011;5663;50.864;12.096;2023-03-24T06:17:08;3.57;;;3.00;;
11211;SDS011;5663;50.864;12.096;2023-03-24T06:19:39;4.23;;;2.97;;
11211;SDS011;5663;50.864;12.096;2023-03-24T06:22:15;4.07;;;3.03;;
11211;SDS011;5663;50.864;12.096;2023-03-24T06:24:44;4.57;;;3.10;;
11211;SDS011;5663;50.864;12.096;2023-03-24T06:27:14;3.37;;;2.77;;
11211;SDS011;5663;50.864;12.096;2023-03-24T06:29:43;4.80;;;3.03;;
11211;SDS011;5663;50.864;12.096;2023-03-24T06:32:10;3.37;;;2.50;;
11211;SDS011;5663;50.864;12.096;2023-03-24T06:34:38;5.37;;;3.10;;
11211;SDS011;5663;50.864;12.096;2023-03-24T06:37:05;4.20;;;3.30;;
11211;SDS011;5663;50.864;12.096;2023-03-24T06:39:35;5.87;;;3.57;;
11211;SDS011;5663;50.864;12.096;2023-03-24T06:42:04;3.23;;;2.80;;
11211;SDS011;5663;50.864;12.096;2023-03-24T06:44:32;5.07;;;3.17;;
11211;SDS011;5663;50.864;12.096;2023-03-24T06:47:00;5.50;;;2.97;;
11211;SDS011;5663;50.864;12.096;2023-03-24T06:49:28;4.57;;;2.93;;
11211;SDS011;5663;50.864;12.096;2023-03-24T09:54:50;1.33;;;1.20;;
11211;SDS011;5663;50.864;12.096;2023-03-24T09:57:21;1.30;;;1.20;;
11211;SDS011;5663;50.864;12.096;2023-03-24T09:59:52;2.47;;;1.50;;
11211;SDS011;5663;50.864;12.096;2023-03-24T10:02:20;2.90;;;1.30;;
11211;SDS011;5663;50.864;12.096;2023-03-24T10:04:48;1.70;;;1.30;;
11211;SDS011;5663;50.864;12.096;2023-03-24T10:07:18;1.57;;;1.30;;
11211;SDS011;5663;50.864;12.096;2023-03-24T10:17:19;3.30;;;1.50;;
11211;SDS011;5663;50.864;12.096;2023-03-24T10:19:53;1.70;;;1.53;;
11211;SDS011;5663;50.864;12.096;2023-03-24T10:22:28;5.90;;;1.77;;
11211;SDS011;5663;50.864;12.096;2023-03-24T10:25:03;1.73;;;1.63;;
11211;SDS011;5663;50.864;12.096;2023-03-24T10:27:40;1.60;;;1.50;;
11211;SDS011;5663;50.864;12.096;2023-03-24T10:30:13;1.43;;;1.33;;
11211;SDS011;5663;50.864;12.096;2023-03-24T10:32:45;4.23;;;1.60;;
11211;SDS011;5663;50.864;12.096;2023-03-24T10:35:28;1.50;;;1.33;;
11211;SDS011;5663;50.864;12.096;2023-03-24T10:37:59;1.40;;;1.30;;
11211;SDS011;5663;50.864;12.096;2023-03-24T10:44:33;2.93;;;1.60;;
11211;SDS011;5663;50.864;12.096;2023-03-24T10:47:02;3.17;;;1.20;;
11211;SDS011;5663;50.864;12.096;2023-03-24T10:49:34;1.87;;;1.40;;
11211;SDS011;5663;50.864;12.096;2023-03-24T10:52:04;3.40;;;1.40;;
11211;SDS011;5663;50.864;12.096;2023-03-24T14:53:33;2.17;;;1.10;;
11211;SDS011;5663;50.864;12.096;2023-03-24T14:56:04;1.87;;;1.10;;
11211;SDS011;5663;50.864;12.096;2023-03-24T14:58:35;1.40;;;1.10;;
11211;SDS011;5663;50.864;12.096;2023-03-24T15:01:05;1.30;;;1.20;;
11211;SDS011;5663;50.864;12.096;2023-03-24T15:03:37;4.20;;;1.60;;
11211;SDS011;5663;50.864;12.096;2023-03-24T15:09:19;1.90;;;1.30;;
11211;SDS011;5663;50.864;12.096;2023-03-24T15:12:03;2.40;;;1.10;;
11211;SDS011;5663;50.864;12.096;2023-03-24T15:18:22;3.37;;;1.53;;
11211;SDS011;5663;50.864;12.096;2023-03-24T15:32:15;2.00;;;1.40;;
11211;SDS011;5663;50.864;12.096;2023-03-24T15:34:46;2.97;;;1.40;;
11211;SDS011;5663;50.864;12.096;2023-03-24T15:37:20;4.00;;;2.00;;
11211;SDS011;5663;50.864;12.096;2023-03-24T15:39:49;6.37;;;2.10;;
11211;SDS011;5663;50.864;12.096;2023-03-24T15:42:34;3.93;;;2.00;;
11211;SDS011;5663;50.864;12.096;2023-03-24T15:45:08;1.80;;;1.27;;
11211;SDS011;5663;50.864;12.096;2023-03-24T15:47:41;3.17;;;1.60;;
11211;SDS011;5663;50.864;12.096;2023-03-24T15:53:00;3.47;;;1.20;;
11211;SDS011;5663;50.864;12.096;2023-03-24T18:55:29;5.50;;;2.23;;
11211;SDS011;5663;50.864;12.096;2023-03-24T18:57:57;5.17;;;2.77;;
11211;SDS011;5663;50.864;12.096;2023-03-24T19:00:24;3.70;;;2.57;;
11211;SDS011;5663;50.864;12.096;2023-03-24T19:02:52;6.93;;;3.17;;
11211;SDS011;5663;50.864;12.096;2023-03-24T19:05:20;6.77;;;2.77;;
11211;SDS011;5663;50.864;12.096;2023-03-24T19:07:47;6.93;;;4.03;;
11211;SDS011;5663;50.864;12.096;2023-03-24T19:10:16;5.10;;;2.90;;
11211;SDS011;5663;50.864;12.096;2023-03-24T19:12:46;6.37;;;3.00;;
11211;SDS011;5663;50.864;12.096;2023-03-24T19:15:13;6.83;;;3.20;;
11211;SDS011;5663;50.864;12.096;2023-03-24T19:17:42;4.07;;;2.57;;
11211;SDS011;5663;50.864;12.096;2023-03-24T19:20:11;6.00;;;2.80;;
11211;SDS011;5663;50.864;12.096;2023-03-24T19:22:39;4.93;;;2.53;;
11211;SDS011;5663;50.864;12.096;2023-03-24T19:25:07;7.20;;;2.33;;
11211;SDS011;5663;50.864;12.096;2023-03-24T19:27:35;4.43;;;2.07;;
11211;SDS011;5663;50.864;12.096;2023-03-24T19:30:04;8.70;;;2.77;;
11211;SDS011;5663;50.864;12.096;2023-03-24T19:32:33;5.50;;;2.60;;
11211;SDS011;5663;50.864;12.096;2023-03-24T19:35:01;3.70;;;2.20;;
11211;SDS011;5663;50.864;12.096;2023-03-24T19:37:29;2.63;;;2.17;;
11211;SDS011;5663;50.864;12.096;2023-03-24T19:39:57;3.97;;;2.67;;
11211;SDS011;5663;50.864;12.096;2023-03-24T19:42:25;5.80;;;2.33;;
11211;SDS011;5663;50.864;12.096;2023-03-24T19:44:55;5.97;;;2.80;;
11211;SDS011;5663;50.864;12.096;2023-03-24T19:47:24;4.83;;;2.80;;
11211;SDS011;5663;50.864;12.096;2023-03-24T19:49:52;5.97;;;2.70;;
11211;SDS011;5663;50.864;12.096;2023-03-24T19:52:21;3.67;;;2.50;;
11211;SDS011;5663;50.864;12.096;2023-03-24T19:54:49;3.97;;;2.40;;
11211;SDS011;5663;50.864;12.096;2023-03-24T19:57:17;4.07;;;2.83;;
11211;SDS011;5663;50.864;12.096;2023-03-24T19:59:44;3.83;;;2.80;;
11211;SDS011;5663;50.864;12.096;2023-03-24T20:02:13;5.60;;;3.13;;
11211;SDS011;5663;50.864;12.096;2023-03-24T20:04:43;6.43;;;3.30;;
11211;SDS011;5663;50.864;12.096;2023-03-24T20:07:11;5.60;;;3.20;;
11211;SDS011;5663;50.864;12.096;2023-03-24T20:09:38;4.27;;;2.60;;
11211;SDS011;5663;50.864;12.096;2023-03-24T20:12:06;6.37;;;2.70;;
11211;SDS011;5663;50.864;12.096;2023-03-24T20:14:33;5.97;;;3.30;;
11211;SDS011;5663;50.864;12.096;2023-03-24T20:17:01;5.20;;;3.03;;
11211;SDS011;5663;50.864;12.096;2023-03-24T20:19:28;4.53;;;2.90;;
11211;SDS011;5663;50.864;12.096;2023-03-24T20:21:57;5.50;;;3.23;;
11211;SDS011;5663;50.864;12.096;2023-03-24T20:24:25;3.77;;;3.00;;
11211;SDS011;5663;50.864;12.096;2023-03-24T20:26:53;6.87;;;3.50;;
11211;SDS011;5663;50.864;12.096;2023-03-24T20:29:20;6.90;;;3.40;;
11211;SDS011;5663;50.864;12.096;2023-03-24T20:31:47;5.20;;;3.10;;
11211;SDS011;5663;50.864;12.096;2023-03-24T20:34:15;5.73;;;3.00;;
11211;SDS011;5663;50.864;12.096;2023-03-24T20:36:42;5.10;;;2.93;;
11211;SDS011;5663;50.864;12.096;2023-03-24T20:39:11;6.07;;;3.00;;
11211;SDS011;5663;50.864;12.096;2023-03-24T20:41:39;6.83;;;3.60;;
11211;SDS011;5663;50.864;12.096;2023-03-24T20:44:06;3.83;;;3.07;;
11211;SDS011;5663;50.864;12.096;2023-03-24T20:46:34;6.97;;;3.20;;
11211;SDS011;5663;50.864;12.096;2023-03-24T20:49:02;5.27;;;3.00;;
11211;SDS011;5663;50.864;12.096;2023-03-24T20:51:29;4.77;;;3.30;;
11211;SDS011;5663;50.864;12.096;2023-03-24T20:53:57;3.50;;;2.80;;
11211;SDS011;5663;50.864;12.096;2023-03-24T20:56:27;7.97;;;3.20;;
11211;SDS011;5663;50.864;12.096;2023-03-24T20:58:54;4.23;;;3.10;;
11211;SDS011;5663;50.864;12.096;2023-03-24T21:01:22;6.03;;;3.23;;
11211;SDS011;5663;50.864;12.096;2023-03-24T21:03:50;6.13;;;3.70;;
11211;SDS011;5663;50.864;12.096;2023-03-24T21:06:18;5.90;;;3.97;;
11211;SDS011;5663;50.864;12.096;2023-03-24T21:08:46;6.17;;;3.60;;
11211;SDS011;5663;50.864;12.096;2023-03-24T21:11:14;9.70;;;5.20;;
11211;SDS011;5663;50.864;12.096;2023-03-24T21:13:44;13.93;;;6.50;;
11211;SDS011;5663;50.864;12.096;2023-03-24T21:16:12;19.90;;;8.27;;
11211;SDS011;5663;50.864;12.096;2023-03-24T21:18:41;16.57;;;7.53;;
11211;SDS011;5663;50.864;12.096;2023-03-24T21:21:10;10.50;;;5.97;;
11211;SDS011;5663;50.864;12.096;2023-03-24T21:23:38;11.43;;;6.27;;
11211;SDS011;5663;50.864;12.096;2023-03-24T21:26:08;11.87;;;6.30;;
11211;SDS011;5663;50.864;12.096;2023-03-24T21:28:38;10.13;;;5.87;;
11211;SDS011;5663;50.864;12.096;2023-03-24T21:31:07;10.33;;;6.40;;
11211;SDS011;5663;50.864;12.096;2023-03-24T21:33:36;10.43;;;6.13;;
11211;SDS011;5663;50.864;12.096;2023-03-24T21:36:06;9.97;;;5.97;;
11211;SDS011;5663;50.864;12.096;2023-03-24T21:38:34;10.50;;;5.93;;
11211;SDS011;5663;50.864;12.096;2023-03-24T21:41:04;7.97;;;5.13;;
11211;SDS011;5663;50.864;12.096;2023-03-24T21:43:33;8.27;;;5.57;;
11211;SDS011;5663;50.864;12.096;2023-03-24T21:46:00;8.53;;;5.57;;
